createdAt,value
2019-04-16T07:11:00.375Z,30.23
2019-04-16T07:13:32.595Z,25.15
2019-04-16T08:40:47.268Z,32.90
2019-04-16T08:43:26.765Z,24.65
2019-04-16T08:49:03.672Z,27.65
2019-04-16T08:51:54.201Z,24.55
2019-04-16T08:54:42.518Z,26.52
2019-04-16T08:57:22.546Z,25.15
2019-04-16T09:03:15.828Z,26.45
2019-04-16T09:05:46.542Z,26.68
2019-04-16T09:08:40.151Z,27.02
2019-04-16T09:11:22.301Z,24.67
2019-04-16T09:13:53.272Z,28.90
2019-04-16T09:16:37.958Z,24.12
2019-04-16T09:22:17.651Z,27.90
2019-04-16T09:27:49.565Z,27.65
2019-04-16T09:30:46.642Z,25.70
2019-04-16T09:33:24.803Z,27.20
2019-04-16T09:36:07.460Z,25.43
2019-04-16T09:38:51.009Z,27.22
2019-04-16T09:41:23.309Z,28.80
2019-04-16T09:44:15.806Z,26.33
2019-04-16T09:46:52.189Z,24.92
2019-04-16T09:49:58.351Z,23.12
2019-04-16T09:52:55.506Z,26.52
2019-04-16T09:55:44.481Z,24.72
2019-04-16T09:58:22.939Z,24.43
2019-04-16T10:01:03.863Z,30.32
2019-04-16T10:03:38.210Z,24.95
2019-04-16T10:06:14.677Z,27.65
2019-04-16T10:14:40.728Z,25.88
2019-04-16T10:17:14.213Z,30.05
2019-04-16T10:19:47.926Z,27.90
2019-04-16T10:22:19.613Z,28.67
2019-04-16T10:25:09.158Z,28.35
2019-04-16T10:34:43.577Z,28.77
2019-04-16T10:40:32.904Z,29.67
2019-04-16T10:43:17.425Z,30.60
2019-04-16T10:46:09.688Z,26.37
2019-04-16T10:48:50.612Z,25.12
2019-04-16T10:51:25.733Z,25.35
2019-04-16T10:59:45.648Z,26.85
2019-04-16T11:02:37.334Z,25.57
2019-04-16T11:05:19.265Z,25.77
2019-04-16T11:08:04.260Z,25.75
2019-04-16T11:10:34.182Z,25.17
2019-04-16T11:13:15.458Z,24.90
2019-04-16T11:15:52.864Z,30.37
2019-04-16T11:30:32.537Z,32.88
2019-04-16T11:33:03.072Z,28.98
2019-04-16T11:35:33.187Z,27.98
2019-04-16T11:38:07.969Z,28.30
2019-04-16T11:40:41.256Z,27.30
2019-04-16T11:43:11.548Z,29.23
2019-04-16T11:45:47.248Z,28.60
2019-04-16T11:48:24.018Z,27.73
2019-04-16T11:54:11.268Z,26.23
2019-04-16T11:59:38.478Z,25.40
2019-04-16T12:02:24.921Z,28.73
2019-04-16T12:05:04.109Z,27.62
2019-04-16T12:08:01.573Z,22.58
2019-04-16T12:10:39.181Z,28.23
2019-04-16T12:22:44.677Z,27.10
2019-04-16T12:31:27.967Z,31.75
2019-04-16T12:46:08.464Z,28.90
2019-04-16T12:48:47.428Z,26.52
2019-04-16T13:00:39.583Z,27.90
2019-04-16T13:03:30.584Z,24.35
2019-04-16T13:06:06.108Z,29.63
2019-04-16T13:08:38.178Z,25.92
2019-04-16T13:14:16.507Z,25.95
2019-04-16T13:19:50.827Z,28.57
2019-04-16T13:22:43.305Z,26.23
2019-04-16T13:25:17.430Z,25.85
2019-04-16T13:27:51.700Z,23.25
2019-04-16T13:30:32.445Z,27.37
2019-04-16T13:33:27.432Z,29.20
2019-04-16T13:35:59.944Z,26.20
2019-04-16T13:38:40.925Z,23.62
2019-04-16T13:41:15.531Z,28.85
2019-04-16T13:43:59.838Z,24.57
2019-04-16T13:46:34.533Z,27.02
2019-04-16T13:49:24.760Z,27.05
2019-04-16T13:51:57.420Z,25.43
2019-04-16T13:54:50.939Z,26.12
2019-04-16T13:57:34.515Z,28.92
2019-04-16T14:00:13.912Z,28.67
2019-04-16T14:05:49.114Z,30.85
2019-04-16T14:11:01.390Z,32.78
2019-04-16T14:13:31.503Z,24.75
2019-04-16T14:16:06.072Z,22.70
2019-04-16T14:18:47.664Z,24.47
2019-04-16T14:21:19.124Z,24.60
2019-04-16T14:23:48.985Z,25.90
2019-04-16T14:26:26.072Z,23.80
2019-04-16T14:28:58.879Z,26.00
2019-04-16T14:31:38.773Z,23.30
2019-04-16T14:34:24.310Z,23.02
2019-04-16T14:36:59.246Z,24.87
2019-04-16T14:39:33.338Z,24.10
2019-04-16T14:42:06.531Z,22.37
2019-04-16T14:44:49.014Z,26.20
2019-04-16T14:47:22.782Z,22.52
2019-04-16T14:49:54.219Z,25.40
2019-04-16T14:52:35.534Z,26.73
2019-04-16T14:58:46.446Z,23.57
2019-04-16T15:07:19.460Z,26.48
2019-04-16T15:10:15.251Z,27.65
2019-04-16T15:16:29.173Z,20.97
2019-04-16T15:19:19.453Z,26.75
2019-04-16T15:22:14.421Z,24.72
2019-04-16T15:24:46.412Z,24.90
2019-04-16T15:27:35.848Z,24.50
2019-04-16T15:30:31.762Z,23.45
2019-04-16T15:33:28.864Z,24.98
2019-04-16T15:36:22.138Z,25.95
2019-04-16T16:13:41.777Z,25.70
2019-04-16T16:16:17.641Z,23.07
2019-04-16T16:18:46.517Z,19.25
2019-04-16T16:21:21.197Z,23.27
2019-04-16T16:23:52.058Z,22.27
2019-04-16T16:26:23.686Z,22.70
2019-04-16T16:29:17.127Z,27.60
2019-04-16T16:34:58.538Z,25.95
2019-04-16T16:37:28.487Z,25.72
2019-04-16T16:39:58.499Z,24.95
2019-04-16T16:42:30.472Z,26.75
2019-04-16T16:45:01.957Z,21.37
2019-04-16T16:47:33.444Z,21.15
2019-04-16T16:50:07.518Z,20.00
2019-04-16T16:52:49.944Z,20.45
2019-04-16T16:55:21.285Z,20.02
2019-04-16T16:58:04.244Z,17.35
2019-04-16T17:00:50.915Z,19.12
2019-04-16T17:03:29.608Z,18.90
2019-04-16T17:06:02.468Z,19.23
2019-04-16T17:08:32.544Z,20.90
2019-04-16T17:11:14.718Z,19.73
2019-04-16T17:13:34.322Z,17.15
2019-04-16T17:16:05.240Z,24.05
2019-04-16T17:18:35.073Z,17.37
2019-04-16T17:21:07.177Z,19.23
2019-04-16T17:23:37.726Z,19.50
2019-04-16T17:26:08.163Z,22.05
2019-04-16T17:28:50.714Z,14.95
2019-04-16T17:31:23.831Z,17.92
2019-04-16T17:33:55.760Z,18.00
2019-04-16T17:36:25.750Z,19.02
2019-04-16T17:38:56.361Z,17.75
2019-04-16T17:41:40.304Z,19.42
2019-04-16T17:44:27.296Z,18.70
2019-04-16T17:47:30.914Z,21.30
2019-04-16T17:49:47.796Z,16.48
2019-04-16T17:52:25.981Z,19.35
2019-04-16T17:55:04.026Z,18.65
2019-04-16T17:57:38.264Z,17.73
2019-04-16T18:00:27.174Z,17.98
2019-04-16T18:03:04.108Z,14.85
2019-04-16T18:05:38.679Z,20.85
2019-04-16T18:08:26.683Z,13.97
2019-04-16T18:10:58.735Z,14.83
2019-04-16T18:13:45.719Z,15.60
2019-04-16T18:16:19.855Z,16.17
2019-04-16T18:18:52.217Z,16.10
2019-04-16T18:21:23.695Z,18.55
2019-04-16T18:24:14.668Z,14.60
2019-04-16T18:27:10.819Z,14.00
2019-04-16T18:32:37.291Z,19.23
2019-04-16T18:38:12.652Z,14.60
2019-04-16T18:40:54.592Z,14.87
2019-04-16T18:43:50.318Z,14.80
2019-04-16T18:47:04.947Z,13.05
2019-04-16T18:49:37.463Z,13.83
2019-04-16T18:52:14.248Z,12.63
2019-04-16T18:54:50.558Z,13.13
2019-04-16T18:57:22.914Z,14.00
2019-04-16T19:00:01.037Z,11.15
2019-04-16T19:02:35.574Z,11.90
2019-04-16T19:05:07.633Z,13.48
2019-04-16T19:07:40.864Z,14.18
